Time;durP1;ratioP1;P1;durP2;ratioP2;P2;SDS_P1;SDS_P2;PMS_P1;PMS_P2;Temp;Humidity;BMP_temperature;BMP_pressure;BME280_temperature;BME280_humidity;BME280_pressure;Samples;Min_cycle;Max_cycle;Signal;HPM_P1;HPM_P2
2023/06/27 00:00:25;;;;;;;3.50;0.35;;;;;;;17.39;100.00;101441.56;5036498;28;20033;-47
2023/06/27 00:02:53;;;;;;;2.10;0.45;;;;;;;17.42;100.00;101430.41;5058155;28;20406;-50
2023/06/27 00:05:18;;;;;;;1.45;0.52;;;;;;;17.47;100.00;101430.59;5038693;28;20506;-50
2023/06/27 00:07:43;;;;;;;5.78;0.20;;;;;;;17.49;100.00;101433.91;5035216;28;20128;-50
2023/06/27 00:10:10;;;;;;;3.92;1.00;;;;;;;17.42;100.00;101431.25;5028740;28;20095;-48
2023/06/27 00:12:36;;;;;;;1.35;0.30;;;;;;;17.36;100.00;101434.78;5036906;28;20022;-53
2023/06/27 00:15:05;;;;;;;4.18;0.30;;;;;;;17.43;100.00;101445.47;5030779;28;20025;-48
2023/06/27 00:17:34;;;;;;;4.40;0.30;;;;;;;17.47;100.00;101437.81;5040935;28;20033;-56
2023/06/27 00:20:04;;;;;;;0.90;0.20;;;;;;;17.51;100.00;101434.50;5038261;28;20036;-49
2023/06/27 00:22:30;;;;;;;1.90;0.00;;;;;;;17.58;100.00;101426.41;5036049;28;20025;-48
2023/06/27 00:24:55;;;;;;;2.00;0.30;;;;;;;17.60;100.00;101430.53;5031173;28;20029;-53
2023/06/27 00:27:21;;;;;;;5.70;0.13;;;;;;;17.58;100.00;101431.78;5032445;28;20532;-50
2023/06/27 00:29:46;;;;;;;0.65;0.15;;;;;;;17.58;100.00;101434.47;5033918;28;20052;-49
2023/06/27 00:32:12;;;;;;;2.55;0.13;;;;;;;17.59;100.00;101436.13;5040500;28;20060;-47
2023/06/27 00:34:37;;;;;;;1.48;0.32;;;;;;;17.60;100.00;101432.41;5030011;28;20111;-49
2023/06/27 00:37:02;;;;;;;2.58;0.13;;;;;;;17.59;100.00;101431.56;5037189;28;20102;-55
2023/06/27 00:39:28;;;;;;;2.83;0.47;;;;;;;17.52;100.00;101425.41;5035592;28;20082;-49
2023/06/27 00:41:54;;;;;;;1.10;0.60;;;;;;;17.53;100.00;101419.03;5050598;28;20032;-49
2023/06/27 00:44:20;;;;;;;2.40;0.30;;;;;;;17.52;100.00;101424.59;5034955;28;20486;-48
2023/06/27 00:46:48;;;;;;;3.25;0.40;;;;;;;17.48;100.00;101418.00;5031680;28;20033;-53
2023/06/27 00:49:17;;;;;;;4.75;0.30;;;;;;;17.42;100.00;101422.38;5033607;28;20039;-47
2023/06/27 00:51:44;;;;;;;1.15;0.15;;;;;;;17.41;100.00;101408.16;5033397;28;20083;-49
2023/06/27 00:54:10;;;;;;;6.47;0.52;;;;;;;17.34;100.00;101406.53;5031972;28;20037;-48
2023/06/27 00:56:36;;;;;;;2.45;0.40;;;;;;;17.47;100.00;101406.47;5033000;28;20147;-52
2023/06/27 00:59:02;;;;;;;8.20;1.55;;;;;;;17.63;100.00;101413.19;5034051;28;20068;-47
2023/06/27 01:01:30;;;;;;;4.57;0.80;;;;;;;17.71;100.00;101412.13;5034859;28;20115;-48
2023/06/27 01:03:55;;;;;;;5.10;1.00;;;;;;;17.73;100.00;101412.72;5033859;28;20035;-49
2023/06/27 01:06:27;;;;;;;1.77;0.57;;;;;;;17.73;100.00;101410.84;5035841;28;20408;-52
2023/06/27 01:08:59;;;;;;;7.68;0.57;;;;;;;17.73;100.00;101405.50;5030352;28;20029;-48
2023/06/27 01:11:29;;;;;;;2.15;0.20;;;;;;;17.77;100.00;101408.59;5035322;28;20124;-49
2023/06/27 01:13:56;;;;;;;5.78;0.30;;;;;;;17.81;100.00;101399.94;5033583;28;20128;-48
2023/06/27 01:16:28;;;;;;;2.92;1.00;;;;;;;17.79;100.00;101402.00;5022493;28;20029;-50
2023/06/27 01:18:56;;;;;;;4.22;0.57;;;;;;;17.85;100.00;101397.63;5032955;28;20470;-48
2023/06/27 01:21:28;;;;;;;3.60;0.35;;;;;;;17.84;100.00;101399.50;5031345;28;20040;-50
2023/06/27 01:23:55;;;;;;;2.20;0.15;;;;;;;17.92;100.00;101397.59;5031068;28;20475;-47
2023/06/27 01:26:22;;;;;;;2.50;1.45;;;;;;;17.89;100.00;101406.91;5031024;28;20033;-45
2023/06/27 01:28:48;;;;;;;1.45;0.40;;;;;;;17.93;100.00;101407.28;5034230;28;20026;-48
2023/06/27 01:31:32;;;;;;;5.57;0.40;;;;;;;17.91;100.00;101414.72;5039657;28;20036;-47
2023/06/27 01:34:08;;;;;;;4.38;0.20;;;;;;;17.93;100.00;101421.50;5029972;28;20033;-47
2023/06/27 01:36:42;;;;;;;5.45;0.63;;;;;;;17.97;100.00;101421.91;5034654;28;20044;-51
2023/06/27 01:39:17;;;;;;;3.33;0.70;;;;;;;17.92;100.00;101419.88;5027239;28;20556;-50
2023/06/27 01:41:47;;;;;;;3.70;0.82;;;;;;;17.92;100.00;101413.69;5032003;28;20029;-52
2023/06/27 01:44:14;;;;;;;1.83;0.10;;;;;;;17.85;100.00;101403.81;5033204;28;20037;-49
2023/06/27 01:46:40;;;;;;;1.85;0.15;;;;;;;17.84;100.00;101414.78;5038596;28;20109;-50
2023/06/27 01:49:08;;;;;;;2.70;0.68;;;;;;;17.76;100.00;101413.13;5037625;28;20025;-50
2023/06/27 01:51:33;;;;;;;0.73;0.20;;;;;;;17.70;100.00;101410.47;5043248;28;20539;-47
2023/06/27 01:53:58;;;;;;;5.63;0.98;;;;;;;17.78;100.00;101410.22;5033600;28;20033;-53
2023/06/27 01:56:24;;;;;;;1.45;0.32;;;;;;;17.76;100.00;101406.91;5035129;28;20063;-47
2023/06/27 01:58:49;;;;;;;2.67;1.00;;;;;;;17.73;100.00;101402.00;5038780;28;20129;-49
2023/06/27 02:01:15;;;;;;;2.78;0.20;;;;;;;17.76;100.00;101413.13;5036534;28;20057;-50
2023/06/27 02:03:40;;;;;;;2.65;0.30;;;;;;;17.75;100.00;101406.09;5040423;28;20504;-49
2023/06/27 02:06:05;;;;;;;1.55;0.20;;;;;;;17.72;100.00;101408.41;5039622;28;20410;-50
2023/06/27 02:08:31;;;;;;;2.72;0.32;;;;;;;17.76;100.00;101402.41;5042811;28;20043;-51
2023/06/27 02:10:56;;;;;;;1.23;0.28;;;;;;;17.67;100.00;101409.06;5035962;28;20040;-47
2023/06/27 02:13:21;;;;;;;2.67;0.55;;;;;;;17.63;100.00;101405.13;5033270;28;20234;-49
2023/06/27 02:15:46;;;;;;;3.97;0.93;;;;;;;17.64;100.00;101404.94;5031281;28;20033;-47
2023/06/27 02:18:12;;;;;;;5.80;0.55;;;;;;;17.60;100.00;101408.25;5041655;28;20535;-50
2023/06/27 02:20:37;;;;;;;3.30;0.80;;;;;;;17.56;100.00;101409.75;5037741;28;20046;-52
2023/06/27 02:23:02;;;;;;;0.50;0.22;;;;;;;17.59;100.00;101404.75;5039515;28;20025;-49
2023/06/27 02:25:28;;;;;;;1.35;0.35;;;;;;;17.71;100.00;101406.75;5038250;28;20047;-49
2023/06/27 02:27:53;;;;;;;4.45;0.60;;;;;;;17.69;100.00;101406.97;5039271;28;20033;-52
2023/06/27 02:30:19;;;;;;;2.00;0.50;;;;;;;17.63;100.00;101410.50;5034894;28;20039;-50
2023/06/27 02:32:44;;;;;;;8.55;0.52;;;;;;;17.60;100.00;101397.53;5034528;28;20064;-50
2023/06/27 02:35:10;;;;;;;4.88;0.20;;;;;;;17.50;100.00;101400.69;5043047;28;20371;-47
2023/06/27 02:37:35;;;;;;;0.80;0.17;;;;;;;17.42;100.00;101400.94;5044462;28;20025;-49
2023/06/27 02:40:00;;;;;;;2.70;0.47;;;;;;;17.41;100.00;101401.97;5038667;28;20110;-50
2023/06/27 02:42:26;;;;;;;0.20;0.20;;;;;;;17.36;100.00;101401.78;5032315;28;20028;-48
2023/06/27 02:44:51;;;;;;;0.98;0.22;;;;;;;17.38;100.00;101397.03;5026482;28;20104;-51
2023/06/27 02:47:18;;;;;;;5.47;0.43;;;;;;;17.26;100.00;101398.75;5032481;28;20068;-49
2023/06/27 02:49:43;;;;;;;7.47;0.30;;;;;;;17.09;100.00;101398.38;5035969;28;20040;-52
2023/06/27 02:52:09;;;;;;;3.13;0.20;;;;;;;17.02;100.00;101405.66;5040413;28;20025;-50
2023/06/27 02:54:34;;;;;;;2.72;0.22;;;;;;;17.10;100.00;101395.50;5029414;28;20036;-50
2023/06/27 02:57:00;;;;;;;5.07;0.10;;;;;;;17.11;100.00;101402.50;5039099;28;20067;-48
2023/06/27 02:59:25;;;;;;;1.75;0.20;;;;;;;17.12;100.00;101400.66;5033875;28;20028;-51
2023/06/27 03:01:50;;;;;;;0.95;0.20;;;;;;;17.16;100.00;101400.00;5031603;28;20053;-50
2023/06/27 03:04:20;;;;;;;1.60;0.30;;;;;;;17.23;100.00;101400.81;5036216;28;20041;-46
2023/06/27 03:06:45;;;;;;;3.58;1.05;;;;;;;17.25;100.00;101397.13;5045223;28;20374;-52
2023/06/27 03:09:11;;;;;;;1.60;0.00;;;;;;;17.12;100.00;101396.13;5036304;28;20038;-47
2023/06/27 03:11:36;;;;;;;1.83;0.50;;;;;;;16.72;100.00;101398.88;5039634;28;20040;-48
2023/06/27 03:14:01;;;;;;;6.18;1.02;;;;;;;16.62;100.00;101403.84;5032132;28;20048;-49
2023/06/27 03:16:27;;;;;;;3.75;0.80;;;;;;;16.66;100.00;101402.41;5028137;28;20060;-52
2023/06/27 03:18:52;;;;;;;2.95;0.30;;;;;;;16.60;100.00;101403.25;5039530;28;20031;-46
2023/06/27 03:21:19;;;;;;;1.98;0.47;;;;;;;16.68;100.00;101408.38;5052097;28;20032;-50
2023/06/27 03:23:44;;;;;;;3.78;0.68;;;;;;;16.89;100.00;101403.81;5037554;28;20033;-49
2023/06/27 03:26:09;;;;;;;2.80;0.50;;;;;;;16.56;100.00;101412.72;5041142;28;20033;-47
2023/06/27 03:28:35;;;;;;;2.38;0.20;;;;;;;16.49;100.00;101403.84;5036949;28;20044;-52
2023/06/27 03:31:00;;;;;;;2.75;0.65;;;;;;;16.40;100.00;101402.44;5030107;28;20040;-50
2023/06/27 03:33:25;;;;;;;4.32;0.63;;;;;;;16.43;100.00;101396.66;5036094;28;20504;-48
2023/06/27 03:35:51;;;;;;;7.60;0.95;;;;;;;16.41;100.00;101401.41;5031698;28;20025;-48
2023/06/27 03:38:16;;;;;;;3.38;0.50;;;;;;;16.34;100.00;101407.59;5039970;28;20539;-49
2023/06/27 03:40:41;;;;;;;5.97;0.25;;;;;;;16.32;100.00;101398.94;5039266;28;20025;-49
2023/06/27 03:43:10;;;;;;;1.83;0.22;;;;;;;16.32;100.00;101406.97;5034379;28;20424;-52
2023/06/27 03:45:36;;;;;;;5.72;0.45;;;;;;;16.28;100.00;101408.41;5028074;28;20057;-47
2023/06/27 03:48:01;;;;;;;1.95;0.38;;;;;;;16.32;100.00;101406.97;5033263;28;20099;-52
2023/06/27 03:50:26;;;;;;;0.95;0.30;;;;;;;16.38;100.00;101399.13;5031705;28;20025;-53
2023/06/27 03:52:51;;;;;;;1.88;0.47;;;;;;;16.32;100.00;101400.78;5038938;28;20115;-47
2023/06/27 03:55:17;;;;;;;1.13;0.20;;;;;;;16.35;100.00;101397.69;5036871;28;20386;-51
2023/06/27 03:57:42;;;;;;;1.23;0.30;;;;;;;16.26;100.00;101394.41;5035091;28;20375;-52
2023/06/27 04:00:10;;;;;;;0.73;0.28;;;;;;;16.21;100.00;101402.25;5036804;28;20025;-47
2023/06/27 04:02:36;;;;;;;1.17;0.40;;;;;;;16.17;100.00;101411.69;5041549;28;20060;-53
2023/06/27 04:05:02;;;;;;;2.20;0.73;;;;;;;16.15;100.00;101413.75;5038864;28;20029;-54
2023/06/27 04:07:27;;;;;;;2.55;0.82;;;;;;;16.14;100.00;101409.44;5037859;28;20486;-50
2023/06/27 04:09:52;;;;;;;2.17;0.63;;;;;;;16.27;100.00;101412.13;5038576;28;20446;-52
2023/06/27 04:12:17;;;;;;;4.78;0.30;;;;;;;16.23;100.00;101408.19;5043637;28;20108;-51
2023/06/27 04:14:43;;;;;;;0.93;0.55;;;;;;;16.28;100.00;101413.75;5028354;28;20033;-50
2023/06/27 04:17:08;;;;;;;11.48;1.15;;;;;;;16.25;100.00;101406.13;5036065;28;20037;-50
2023/06/27 04:19:33;;;;;;;2.55;0.20;;;;;;;16.13;100.00;101416.66;5036693;28;20078;-49
2023/06/27 04:21:59;;;;;;;3.67;0.60;;;;;;;16.21;100.00;101420.97;5035186;28;20370;-50
2023/06/27 04:24:24;;;;;;;1.42;0.47;;;;;;;16.29;100.00;101419.94;5043627;28;20037;-47
2023/06/27 04:26:49;;;;;;;1.95;0.50;;;;;;;16.29;100.00;101410.06;5037338;28;20037;-51
2023/06/27 04:29:14;;;;;;;5.78;0.57;;;;;;;16.32;100.00;101415.00;5038021;28;20205;-52
2023/06/27 04:31:40;;;;;;;0.88;0.35;;;;;;;16.37;100.00;101414.38;5038337;28;20147;-50
2023/06/27 04:34:08;;;;;;;2.70;0.20;;;;;;;16.46;100.00;101406.94;5039532;28;20045;-50
2023/06/27 04:36:36;;;;;;;1.13;0.47;;;;;;;16.49;100.00;101402.00;5028207;28;20454;-50
2023/06/27 04:39:05;;;;;;;16.60;1.20;;;;;;;16.53;100.00;101405.09;5039902;28;20566;-52
2023/06/27 04:41:31;;;;;;;0.10;0.10;;;;;;;16.48;100.00;101408.38;5039783;28;20133;-51
2023/06/27 04:43:58;;;;;;;1.63;0.25;;;;;;;16.46;100.00;101412.31;5030323;28;20117;-50
2023/06/27 04:46:28;;;;;;;7.05;0.85;;;;;;;16.35;100.00;101419.09;5034225;28;20037;-52
2023/06/27 04:48:56;;;;;;;2.95;0.93;;;;;;;16.27;100.00;101425.50;5036815;28;20025;-49
2023/06/27 04:51:23;;;;;;;1.10;0.10;;;;;;;16.27;100.00;101425.50;5031347;28;20078;-51
2023/06/27 04:53:48;;;;;;;1.10;0.47;;;;;;;16.38;100.00;101423.22;5038815;28;20076;-48
2023/06/27 04:56:13;;;;;;;2.78;0.43;;;;;;;16.47;100.00;101412.13;5039143;28;20083;-50
2023/06/27 04:58:39;;;;;;;1.20;0.73;;;;;;;16.48;100.00;101408.38;5041235;28;20028;-51
2023/06/27 05:01:04;;;;;;;2.72;0.55;;;;;;;16.48;100.00;101395.00;5039044;28;20044;-49
2023/06/27 05:03:29;;;;;;;3.50;0.32;;;;;;;16.65;100.00;101392.72;5042900;28;20029;-50
2023/06/27 05:05:54;;;;;;;1.83;0.68;;;;;;;16.84;100.00;101392.91;5033205;28;20029;-51
2023/06/27 05:08:20;;;;;;;9.25;0.63;;;;;;;16.99;100.00;101391.63;5041177;28;20167;-51
2023/06/27 05:10:45;;;;;;;2.95;0.10;;;;;;;17.11;100.00;101391.78;5034932;28;20035;-48
2023/06/27 05:13:10;;;;;;;1.38;1.00;;;;;;;17.25;100.00;101395.25;5038358;28;20079;-49
2023/06/27 05:15:36;;;;;;;1.77;0.20;;;;;;;17.36;100.00;101393.75;5036408;28;20037;-49
2023/06/27 05:18:07;;;;;;;1.88;0.47;;;;;;;17.55;100.00;101392.81;5036199;28;20037;-50
2023/06/27 05:20:33;;;;;;;3.42;0.25;;;;;;;17.78;100.00;101394.94;5030163;28;20515;-50
2023/06/27 05:22:58;;;;;;;2.55;0.30;;;;;;;18.04;100.00;101380.56;5036782;28;20029;-49
2023/06/27 05:25:23;;;;;;;1.98;0.30;;;;;;;18.20;100.00;101379.19;5037629;28;20064;-49
2023/06/27 05:27:48;;;;;;;6.43;0.82;;;;;;;18.34;100.00;101384.44;5036044;28;20021;-45
2023/06/27 05:30:14;;;;;;;0.70;0.52;;;;;;;18.41;100.00;101388.72;5035589;28;20025;-50
2023/06/27 05:32:40;;;;;;;5.00;0.63;;;;;;;18.45;100.00;101384.53;5035504;28;20029;-50
2023/06/27 05:35:05;;;;;;;6.43;0.90;;;;;;;18.54;100.00;101382.41;5041342;28;20032;-50
2023/06/27 05:37:31;;;;;;;6.63;1.42;;;;;;;18.60;100.00;101388.75;5035520;28;20025;-48
2023/06/27 05:39:57;;;;;;;4.13;0.63;;;;;;;18.66;100.00;101390.53;5034743;28;20036;-49
2023/06/27 05:42:22;;;;;;;4.07;0.88;;;;;;;18.62;100.00;101381.28;5026255;28;20397;-43
2023/06/27 05:44:48;;;;;;;4.10;0.60;;;;;;;18.61;100.00;101401.09;5036451;28;20067;-45
2023/06/27 05:47:13;;;;;;;6.18;0.95;;;;;;;18.57;100.00;101399.94;5028779;28;20036;-47
2023/06/27 05:49:38;;;;;;;8.95;0.77;;;;;;;18.50;100.00;101406.16;5033798;28;20031;-50
2023/06/27 05:52:04;;;;;;;7.00;0.65;;;;;;;18.52;100.00;101406.78;5034243;28;20120;-48
2023/06/27 05:54:29;;;;;;;4.50;0.55;;;;;;;18.58;100.00;101406.94;5039368;28;20056;-47
2023/06/27 05:56:55;;;;;;;3.13;0.77;;;;;;;18.64;100.00;101411.41;5030300;28;20406;-48
2023/06/27 05:59:20;;;;;;;3.80;0.30;;;;;;;18.67;100.00;101417.16;5035076;28;20029;-47
2023/06/27 06:01:46;;;;;;;2.88;1.10;;;;;;;18.70;100.00;101402.47;5035054;28;20547;-49
2023/06/27 06:04:12;;;;;;;5.78;0.80;;;;;;;18.72;100.00;101403.09;5032080;28;20037;-45
2023/06/27 06:06:38;;;;;;;3.67;0.95;;;;;;;18.75;100.00;101413.41;5035760;28;20036;-44
2023/06/27 06:09:06;;;;;;;7.13;0.93;;;;;;;18.82;100.00;101411.47;5034220;28;20671;-45
2023/06/27 06:11:34;;;;;;;3.08;1.13;;;;;;;18.83;100.00;101402.38;5028901;28;20049;-44
2023/06/27 06:14:03;;;;;;;2.83;0.30;;;;;;;18.89;100.00;101404.16;5025139;28;20033;-50
2023/06/27 06:16:33;;;;;;;7.68;1.50;;;;;;;19.03;100.00;101406.72;5026484;28;20390;-47
2023/06/27 06:18:59;;;;;;;1.83;0.80;;;;;;;19.05;100.00;101410.81;5025991;28;20030;-50
2023/06/27 06:21:25;;;;;;;1.70;0.32;;;;;;;19.02;100.00;101410.41;5031372;28;20057;-50
2023/06/27 06:23:50;;;;;;;3.72;1.95;;;;;;;19.13;100.00;101404.31;5024128;28;20033;-48
2023/06/27 06:26:15;;;;;;;1.40;0.63;;;;;;;19.20;100.00;101407.72;5031812;28;20497;-50
2023/06/27 06:28:41;;;;;;;3.10;0.63;;;;;;;19.29;100.00;101409.06;5033985;28;20032;-47
2023/06/27 06:31:06;;;;;;;6.35;1.13;;;;;;;19.31;100.00;101415.03;5043514;28;20378;-49
2023/06/27 06:33:32;;;;;;;4.70;1.08;;;;;;;19.32;100.00;101407.78;5030486;28;20028;-52
2023/06/27 06:35:57;;;;;;;2.05;1.08;;;;;;;19.43;100.00;101416.97;5031891;28;20262;-46
2023/06/27 06:38:24;;;;;;;4.07;1.20;;;;;;;19.53;100.00;101409.16;5029576;28;20478;-50
2023/06/27 06:40:49;;;;;;;5.07;0.43;;;;;;;19.53;100.00;101411.84;5033893;28;20485;-53
2023/06/27 06:43:15;;;;;;;7.00;0.77;;;;;;;19.61;100.00;101406.16;5034952;28;20071;-53
2023/06/27 06:45:40;;;;;;;4.15;0.52;;;;;;;19.90;100.00;101404.50;5031875;28;20025;-45
2023/06/27 06:48:05;;;;;;;2.22;0.40;;;;;;;20.07;100.00;101407.34;5032146;28;20029;-53
2023/06/27 06:50:32;;;;;;;5.75;1.48;;;;;;;20.23;100.00;101417.44;5031987;28;20684;-52
2023/06/27 06:52:57;;;;;;;5.95;0.77;;;;;;;20.30;100.00;101413.84;5032490;28;20169;-54
2023/06/27 06:55:23;;;;;;;5.35;1.60;;;;;;;20.34;100.00;101415.00;5029916;28;20237;-52
2023/06/27 06:57:48;;;;;;;7.72;1.42;;;;;;;20.44;100.00;101410.66;5037105;28;20033;-53
2023/06/27 07:00:14;;;;;;;3.35;0.85;;;;;;;20.59;100.00;101412.91;5035319;28;20029;-52
2023/06/27 07:02:40;;;;;;;8.57;1.42;;;;;;;20.67;100.00;101404.47;5031666;28;20080;-53
2023/06/27 07:05:06;;;;;;;1.75;0.20;;;;;;;20.68;100.00;101408.81;5038795;28;20074;-48
2023/06/27 07:07:32;;;;;;;5.13;0.95;;;;;;;20.84;100.00;101415.38;5037513;28;20036;-51
2023/06/27 07:09:57;;;;;;;4.50;1.05;;;;;;;20.86;100.00;101410.56;5033027;28;20021;-47
2023/06/27 07:12:23;;;;;;;6.97;1.17;;;;;;;21.09;100.00;101400.75;5031076;28;20120;-48
2023/06/27 07:14:49;;;;;;;6.63;1.40;;;;;;;21.29;100.00;101405.75;5030042;28;20041;-49
2023/06/27 07:17:14;;;;;;;4.97;0.73;;;;;;;21.54;100.00;101411.66;5033867;28;20681;-49
2023/06/27 07:19:42;;;;;;;3.33;0.80;;;;;;;21.48;100.00;101412.66;5018149;28;20333;-47
2023/06/27 07:22:07;;;;;;;4.55;0.70;;;;;;;21.36;100.00;101417.22;5027833;28;20437;-52
2023/06/27 07:24:33;;;;;;;5.75;0.30;;;;;;;21.01;100.00;101420.81;5029434;28;20032;-50
2023/06/27 07:26:58;;;;;;;4.30;1.48;;;;;;;20.95;100.00;101413.69;5032670;28;20033;-47
2023/06/27 07:29:23;;;;;;;2.33;0.50;;;;;;;20.91;100.00;101405.28;5032148;28;20029;-46
2023/06/27 07:31:49;;;;;;;1.85;0.47;;;;;;;20.91;100.00;101417.94;5032505;28;20111;-52
2023/06/27 07:34:15;;;;;;;2.08;0.30;;;;;;;20.83;100.00;101402.97;5033800;28;20044;-51
2023/06/27 07:36:40;;;;;;;7.43;2.25;;;;;;;21.11;100.00;101407.56;5032292;28;20055;-50
2023/06/27 07:39:06;;;;;;;4.55;0.52;;;;;;;21.35;100.00;101415.59;5040737;28;20470;-56
2023/06/27 07:41:31;;;;;;;6.03;0.63;;;;;;;21.43;100.00;101411.75;5031523;28;20088;-51
2023/06/27 07:43:56;;;;;;;5.25;0.60;;;;;;;21.60;100.00;101409.06;5039793;28;20040;-55
2023/06/27 07:46:22;;;;;;;2.35;0.55;;;;;;;21.62;100.00;101404.25;5034084;28;20516;-53
2023/06/27 07:48:47;;;;;;;6.65;1.02;;;;;;;21.91;100.00;101408.53;5030869;28;20431;-61
2023/06/27 07:51:13;;;;;;;1.65;0.38;;;;;;;22.19;100.00;101409.56;5036621;28;20037;-58
2023/06/27 07:53:38;;;;;;;4.93;0.25;;;;;;;22.47;100.00;101400.53;5037665;28;20043;-48
2023/06/27 07:56:03;;;;;;;5.25;1.50;;;;;;;22.79;100.00;101408.81;5036444;28;20041;-49
2023/06/27 07:58:29;;;;;;;1.20;0.38;;;;;;;22.86;100.00;101409.44;5033418;28;20048;-46
2023/06/27 08:00:54;;;;;;;2.75;0.70;;;;;;;22.93;100.00;101408.47;5037214;28;20052;-59
2023/06/27 08:03:20;;;;;;;3.50;0.38;;;;;;;22.86;100.00;101409.44;5032481;28;20179;-56
2023/06/27 08:05:45;;;;;;;3.97;1.05;;;;;;;22.65;100.00;101404.84;5031042;28;20066;-59
2023/06/27 08:08:10;;;;;;;3.15;0.55;;;;;;;22.52;100.00;101405.22;5037732;28;20037;-56
2023/06/27 08:10:36;;;;;;;2.15;0.82;;;;;;;22.11;100.00;101412.66;5043606;28;20103;-56
2023/06/27 08:13:01;;;;;;;2.60;0.90;;;;;;;21.94;100.00;101410.78;5034031;28;20028;-54
2023/06/27 08:15:26;;;;;;;1.20;0.82;;;;;;;21.94;100.00;101416.19;5035313;28;20112;-59
2023/06/27 08:17:52;;;;;;;6.88;0.77;;;;;;;22.00;100.00;101415.19;5031131;28;20040;-57
2023/06/27 08:20:18;;;;;;;1.38;0.32;;;;;;;21.99;100.00;101420.81;5030711;28;20087;-59
2023/06/27 08:22:44;;;;;;;5.38;1.10;;;;;;;22.30;100.00;101416.75;5034947;28;20119;-55
2023/06/27 08:25:09;;;;;;;4.63;1.23;;;;;;;22.64;100.00;101411.34;5031583;28;20033;-58
2023/06/27 08:27:35;;;;;;;8.57;0.60;;;;;;;22.81;100.00;101409.38;5034416;28;20029;-56
2023/06/27 08:30:00;;;;;;;3.25;0.65;;;;;;;22.68;100.00;101411.66;5036076;28;20048;-61
2023/06/27 08:32:26;;;;;;;2.72;0.40;;;;;;;22.84;100.00;101403.47;5049318;28;20032;-60
2023/06/27 08:34:51;;;;;;;3.33;0.80;;;;;;;23.07;100.00;101404.34;5033414;28;20029;-47
2023/06/27 08:37:16;;;;;;;3.40;0.43;;;;;;;23.16;100.00;101392.03;5036079;28;20400;-54
2023/06/27 08:39:41;;;;;;;4.88;1.17;;;;;;;22.99;100.00;101397.47;5032444;28;20033;-55
2023/06/27 08:42:07;;;;;;;3.33;0.80;;;;;;;23.08;100.00;101395.16;5025172;28;20025;-48
2023/06/27 08:44:32;;;;;;;2.40;0.50;;;;;;;22.75;99.87;101394.19;5034685;28;20500;-60
2023/06/27 08:47:03;;;;;;;4.57;0.50;;;;;;;22.88;100.00;101386.78;5036525;28;20024;-58
2023/06/27 08:49:33;;;;;;;3.10;0.57;;;;;;;23.12;100.00;101390.88;5032853;28;20488;-54
2023/06/27 08:52:01;;;;;;;1.97;0.10;;;;;;;23.03;96.99;101403.22;5031292;28;20053;-58
2023/06/27 08:54:39;;;;;;;2.05;0.20;;;;;;;23.07;98.59;101393.53;5034729;28;20059;-49
2023/06/27 08:57:06;;;;;;;1.65;0.25;;;;;;;23.30;98.15;101387.03;5031905;28;20560;-56
2023/06/27 08:59:35;;;;;;;4.47;0.47;;;;;;;23.40;98.37;101375.50;5033152;28;20406;-58
2023/06/27 09:02:01;;;;;;;5.97;1.00;;;;;;;23.46;99.03;101382.59;5033920;28;20426;-49
2023/06/27 09:04:27;;;;;;;5.95;0.50;;;;;;;23.77;99.06;101388.31;5028381;28;20029;-53
2023/06/27 09:06:54;;;;;;;6.10;1.25;;;;;;;23.65;96.84;101373.03;5032183;28;20030;-51
2023/06/27 09:09:21;;;;;;;0.40;0.17;;;;;;;23.84;98.82;101383.50;5031222;28;20033;-50
2023/06/27 09:11:48;;;;;;;6.95;0.82;;;;;;;24.04;96.08;101391.81;5044585;28;20034;-46
2023/06/27 09:14:13;;;;;;;4.18;0.45;;;;;;;24.09;95.70;101383.72;5034694;28;20457;-52
2023/06/27 09:16:40;;;;;;;3.70;0.45;;;;;;;24.28;95.76;101376.00;5031790;28;20057;-56
2023/06/27 09:19:05;;;;;;;4.95;1.10;;;;;;;24.44;96.41;101378.78;5027212;28;20079;-50
2023/06/27 09:21:34;;;;;;;0.95;0.60;;;;;;;24.70;95.77;101377.06;5028607;28;20033;-59
2023/06/27 09:24:05;;;;;;;5.15;0.93;;;;;;;24.17;93.31;101377.81;5032833;28;20429;-61
2023/06/27 09:26:30;;;;;;;6.32;1.10;;;;;;;24.06;96.50;101380.69;5033557;28;20029;-51
2023/06/27 09:28:59;;;;;;;4.07;0.52;;;;;;;23.59;97.24;101374.03;5033434;28;20401;-46
2023/06/27 09:31:24;;;;;;;8.43;1.60;;;;;;;23.59;98.06;101382.16;5031181;28;20064;-47
2023/06/27 09:33:50;;;;;;;6.90;1.67;;;;;;;23.41;98.86;101377.94;5027380;28;20223;-54
2023/06/27 09:36:31;;;;;;;3.25;0.70;;;;;;;23.05;99.81;101371.31;5035398;28;20104;-58
2023/06/27 09:39:03;;;;;;;3.15;1.00;;;;;;;23.12;100.00;101369.25;5033934;28;20031;-56
2023/06/27 09:41:49;;;;;;;2.75;0.73;;;;;;;23.47;100.00;101365.28;5029451;28;20056;-45
2023/06/27 09:44:22;;;;;;;5.80;0.82;;;;;;;23.35;100.00;101362.72;5030450;28;20422;-55
2023/06/27 09:46:49;;;;;;;8.50;1.33;;;;;;;23.49;100.00;101355.84;5032483;28;20406;-46
2023/06/27 09:49:16;;;;;;;9.07;0.73;;;;;;;23.37;100.00;101359.78;5031330;28;20033;-58
2023/06/27 09:51:46;;;;;;;0.82;0.75;;;;;;;22.92;100.00;101350.03;5031222;28;20028;-49
2023/06/27 09:54:17;;;;;;;3.08;0.75;;;;;;;23.13;100.00;101361.94;5026049;28;20033;-53
2023/06/27 09:56:42;;;;;;;1.52;1.42;;;;;;;23.25;100.00;101352.59;5030459;28;20021;-53
2023/06/27 09:59:11;;;;;;;4.13;0.65;;;;;;;23.43;100.00;101362.25;5028552;28;20505;-48
2023/06/27 10:01:38;;;;;;;2.17;0.98;;;;;;;23.45;100.00;101360.13;5022774;28;20562;-51
2023/06/27 10:04:04;;;;;;;2.30;0.52;;;;;;;23.33;100.00;101367.56;5028882;28;20034;-55
2023/06/27 10:06:31;;;;;;;4.28;0.38;;;;;;;23.09;100.00;101358.94;5025616;28;20087;-51
2023/06/27 10:08:57;;;;;;;3.38;1.05;;;;;;;23.03;100.00;101362.66;5038678;28;20029;-51
2023/06/27 10:11:23;;;;;;;7.32;1.88;;;;;;;22.96;100.00;101360.09;5029884;28;20035;-53
2023/06/27 10:13:50;;;;;;;1.30;0.70;;;;;;;22.98;100.00;101346.38;5037993;28;20152;-52
2023/06/27 10:16:17;;;;;;;3.05;0.68;;;;;;;23.26;100.00;101346.13;5035311;28;20048;-50
2023/06/27 10:18:43;;;;;;;4.72;0.68;;;;;;;23.69;100.00;101344.38;5041147;28;20037;-55
2023/06/27 10:21:09;;;;;;;3.13;0.40;;;;;;;23.63;100.00;101347.28;5035416;28;20401;-63
2023/06/27 10:23:37;;;;;;;5.90;0.82;;;;;;;23.68;100.00;101336.50;5033227;28;20044;-53
2023/06/27 10:26:03;;;;;;;2.67;0.80;;;;;;;23.90;99.17;101339.94;5029815;28;20124;-51
2023/06/27 10:28:32;;;;;;;3.25;0.30;;;;;;;24.33;97.45;101342.69;5038380;28;20062;-53
2023/06/27 10:30:58;;;;;;;1.70;0.25;;;;;;;24.64;96.18;101340.16;5037750;28;20120;-51
2023/06/27 10:33:31;;;;;;;1.48;0.20;;;;;;;25.00;96.21;101339.22;5037230;28;20032;-49
2023/06/27 10:36:05;;;;;;;6.43;1.48;;;;;;;25.28;91.47;101339.88;5039783;28;20083;-57
2023/06/27 10:38:45;;;;;;;4.43;1.15;;;;;;;25.10;91.65;101337.63;5033609;28;20414;-57
2023/06/27 10:41:12;;;;;;;4.00;0.40;;;;;;;25.11;92.49;101333.81;5034214;28;20458;-59
2023/06/27 10:43:37;;;;;;;2.25;0.30;;;;;;;25.12;91.59;101328.13;5037031;28;20049;-61
2023/06/27 10:46:08;;;;;;;1.15;0.63;;;;;;;25.11;91.50;101336.53;5029771;28;21126;-61
2023/06/27 10:48:35;;;;;;;3.40;0.20;;;;;;;24.89;91.47;101326.72;5034270;28;20033;-47
2023/06/27 10:51:06;;;;;;;1.40;0.40;;;;;;;24.92;92.79;101331.59;5029581;28;20482;-47
2023/06/27 10:53:32;;;;;;;;;;;;;;;24.64;88.81;101330.13;5035457;28;20041;-61
2023/06/27 10:55:57;;;;;;;2.95;0.30;;;;;;;24.33;93.64;101340.78;5035939;28;19927;-53
2023/06/27 10:58:26;;;;;;;1.55;0.47;;;;;;;24.35;92.79;101337.84;5034370;28;20052;-46
2023/06/27 11:00:52;;;;;;;0.95;0.50;;;;;;;24.65;91.67;101336.38;5029848;28;20067;-61
2023/06/27 11:03:19;;;;;;;2.67;0.38;;;;;;;25.11;91.44;101329.19;5035246;28;20231;-62
2023/06/27 11:05:57;;;;;;;1.48;0.17;;;;;;;25.55;87.16;101339.63;5036003;28;20116;-53
2023/06/27 11:08:27;;;;;;;1.65;0.20;;;;;;;25.48;88.26;101338.25;5034184;28;20033;-54
2023/06/27 11:10:58;;;;;;;1.55;0.55;;;;;;;25.15;90.11;101334.94;5033064;28;20040;-54
2023/06/27 11:13:26;;;;;;;2.70;0.25;;;;;;;24.58;88.06;101345.56;5035589;28;20637;-51
2023/06/27 11:15:53;;;;;;;2.40;0.10;;;;;;;24.19;89.73;101333.38;5028133;28;20083;-58